createdAt,value
2023-02-16T00:01:18.121Z,127.95
2023-02-16T00:03:47.032Z,111.45
2023-02-16T00:06:16.360Z,117.80
2023-02-16T00:08:47.837Z,128.80
2023-02-16T00:11:38.124Z,100.70
2023-02-16T00:14:09.989Z,99.90
2023-02-16T00:16:39.175Z,89.43
2023-02-16T00:19:18.932Z,104.25
2023-02-16T00:21:48.194Z,92.00
2023-02-16T00:24:17.168Z,99.18
2023-02-16T00:26:46.986Z,111.15
2023-02-16T00:29:21.645Z,96.50
2023-02-16T00:31:50.929Z,67.90
2023-02-16T00:34:31.759Z,53.50
2023-02-16T00:37:04.748Z,55.53
2023-02-16T00:39:33.842Z,126.50
2023-02-16T00:42:04.817Z,103.57
2023-02-16T00:44:40.736Z,58.03
2023-02-16T00:47:18.932Z,48.42
2023-02-16T00:49:48.291Z,35.63
2023-02-16T00:52:30.924Z,29.02
2023-02-16T00:55:02.003Z,49.75
2023-02-16T00:57:35.579Z,59.08
2023-02-16T01:00:14.154Z,48.30
2023-02-16T01:02:43.269Z,42.28
2023-02-16T01:05:12.737Z,56.97
2023-02-16T01:07:59.427Z,59.25
2023-02-16T01:10:47.962Z,43.53
2023-02-16T01:13:17.811Z,68.78
2023-02-16T01:15:48.118Z,64.28
2023-02-16T01:18:19.397Z,50.05
2023-02-16T01:20:48.945Z,54.53
2023-02-16T01:23:17.755Z,43.13
2023-02-16T01:25:46.625Z,59.42
2023-02-16T01:28:21.605Z,34.95
2023-02-16T01:30:53.206Z,60.92
2023-02-16T01:33:22.552Z,43.22
2023-02-16T01:35:52.457Z,38.17
2023-02-16T01:38:24.152Z,39.75
2023-02-16T01:41:01.465Z,56.97
2023-02-16T01:43:39.319Z,46.10
2023-02-16T01:46:15.960Z,48.08
2023-02-16T01:48:45.091Z,39.88
2023-02-16T01:51:20.588Z,59.95
2023-02-16T01:53:53.501Z,29.13
2023-02-16T01:56:33.648Z,65.40
2023-02-16T01:59:09.852Z,52.40
2023-02-16T02:01:49.407Z,100.13
2023-02-16T02:04:42.453Z,45.40
2023-02-16T02:07:19.104Z,27.73
2023-02-16T02:09:56.670Z,31.35
2023-02-16T02:12:33.598Z,36.80
2023-02-16T02:15:02.683Z,38.88
2023-02-16T02:17:33.067Z,39.42
2023-02-16T02:20:10.291Z,40.28
2023-02-16T02:23:34.067Z,42.53
2023-02-16T02:26:37.079Z,34.85
2023-02-16T02:29:32.478Z,40.85
2023-02-16T02:32:10.297Z,26.73
2023-02-16T02:34:56.006Z,17.05
2023-02-16T02:37:35.814Z,33.42
2023-02-16T02:40:15.611Z,26.80
2023-02-16T02:42:51.353Z,31.05
2023-02-16T02:45:26.252Z,33.03
2023-02-16T02:47:55.527Z,27.02
2023-02-16T02:51:03.263Z,41.03
2023-02-16T02:53:33.128Z,22.52
2023-02-16T02:56:21.806Z,46.65
2023-02-16T02:59:12.705Z,33.42
2023-02-16T03:01:45.374Z,27.92
2023-02-16T03:04:18.186Z,22.85
2023-02-16T03:06:51.265Z,38.22
2023-02-16T03:09:20.889Z,24.60
2023-02-16T03:12:09.631Z,33.45
2023-02-16T03:14:43.418Z,37.22
2023-02-16T03:17:34.018Z,37.90
2023-02-16T03:20:23.164Z,27.70
2023-02-16T03:23:10.317Z,23.88
2023-02-16T03:25:58.134Z,18.58
2023-02-16T03:28:47.978Z,25.92
2023-02-16T03:31:21.752Z,24.15
2023-02-16T03:33:54.999Z,28.47
2023-02-16T03:36:25.082Z,51.55
2023-02-16T03:38:55.289Z,31.63
2023-02-16T03:41:24.400Z,25.23
2023-02-16T03:43:53.273Z,44.35
2023-02-16T03:46:22.113Z,32.78
2023-02-16T03:48:52.331Z,30.85
2023-02-16T03:51:21.242Z,28.23
2023-02-16T03:53:50.243Z,27.25
2023-02-16T03:56:19.214Z,26.48
2023-02-16T03:58:48.054Z,30.40
2023-02-16T04:01:16.877Z,29.35
2023-02-16T04:03:45.885Z,34.78
2023-02-16T04:06:16.147Z,39.60
2023-02-16T04:08:45.009Z,36.65
2023-02-16T04:11:31.018Z,36.53
2023-02-16T04:13:59.877Z,28.52
2023-02-16T04:16:28.734Z,55.85
2023-02-16T04:18:57.539Z,38.35
2023-02-16T04:21:27.827Z,62.35
2023-02-16T04:23:56.620Z,57.50
2023-02-16T04:26:25.508Z,32.63
2023-02-16T04:28:54.392Z,37.78
2023-02-16T04:31:23.299Z,33.78
2023-02-16T04:33:52.250Z,65.03
2023-02-16T04:36:21.897Z,39.78
2023-02-16T04:38:52.059Z,35.80
2023-02-16T04:41:20.876Z,52.67
2023-02-16T04:43:49.745Z,28.73
2023-02-16T04:46:19.270Z,19.60
2023-02-16T04:48:48.189Z,34.25
2023-02-16T04:51:16.943Z,20.20
2023-02-16T04:53:45.795Z,30.15
2023-02-16T04:56:16.099Z,25.45
2023-02-16T04:58:44.980Z,12.77
2023-02-16T05:01:20.554Z,34.03
2023-02-16T05:03:49.808Z,28.58
2023-02-16T05:06:19.251Z,27.58
2023-02-16T05:08:48.712Z,31.50
2023-02-16T05:11:36.556Z,35.05
2023-02-16T05:14:22.889Z,31.35
2023-02-16T05:16:52.396Z,48.55
2023-02-16T05:19:21.240Z,36.22
2023-02-16T05:21:49.994Z,46.47
2023-02-16T05:24:18.781Z,36.10
2023-02-16T05:26:48.929Z,32.25
2023-02-16T05:29:17.763Z,47.40
2023-02-16T05:31:46.951Z,41.90
2023-02-16T05:34:15.931Z,44.75
2023-02-16T05:36:44.721Z,32.28
2023-02-16T05:39:13.546Z,51.70
2023-02-16T05:41:42.320Z,33.55
2023-02-16T05:44:13.222Z,40.67
2023-02-16T05:46:42.962Z,45.45
2023-02-16T05:49:11.893Z,55.78
2023-02-16T05:51:41.140Z,61.17
2023-02-16T05:54:17.101Z,52.50
2023-02-16T05:56:47.165Z,59.70
2023-02-16T05:59:18.412Z,46.55
2023-02-16T06:01:50.899Z,64.28
2023-02-16T06:04:21.656Z,42.90
2023-02-16T06:06:51.086Z,43.58
2023-02-16T06:09:19.954Z,50.60
2023-02-16T06:11:48.755Z,43.72
2023-02-16T06:14:21.717Z,46.25
2023-02-16T06:16:52.551Z,56.10
2023-02-16T06:19:21.974Z,33.72
2023-02-16T06:21:50.787Z,34.63
2023-02-16T06:24:19.642Z,59.67
2023-02-16T06:26:48.491Z,51.55
2023-02-16T06:29:18.758Z,77.55
2023-02-16T06:31:47.783Z,76.20
2023-02-16T06:34:16.748Z,71.38
2023-02-16T06:36:45.547Z,77.65
2023-02-16T06:39:14.370Z,73.95
2023-02-16T06:41:43.240Z,104.05
2023-02-16T06:44:14.025Z,113.47
2023-02-16T06:46:46.353Z,69.88
2023-02-16T06:49:16.881Z,38.90
2023-02-16T06:51:46.120Z,28.08
2023-02-16T06:54:15.367Z,37.60
2023-02-16T06:56:44.193Z,23.38
2023-02-16T06:59:13.497Z,63.67
2023-02-16T07:01:44.260Z,64.53
2023-02-16T07:04:15.470Z,56.00
2023-02-16T07:06:44.282Z,53.33
2023-02-16T07:09:13.201Z,64.43
2023-02-16T07:11:42.246Z,61.97
2023-02-16T07:14:11.148Z,61.78
2023-02-16T07:16:40.233Z,45.75
2023-02-16T07:19:09.226Z,54.10
2023-02-16T07:21:39.534Z,44.50
2023-02-16T07:24:08.806Z,43.20
2023-02-16T07:26:38.761Z,52.33
2023-02-16T07:29:07.608Z,31.52
2023-02-16T07:31:36.526Z,52.33
2023-02-16T07:34:05.398Z,46.22
2023-02-16T07:36:34.253Z,38.85
2023-02-16T07:39:05.421Z,50.25
2023-02-16T07:41:34.350Z,35.53
2023-02-16T07:44:09.915Z,35.78
2023-02-16T07:46:38.899Z,35.83
2023-02-16T07:49:07.789Z,42.20
2023-02-16T07:51:36.664Z,36.08
2023-02-16T07:54:07.204Z,40.72
2023-02-16T07:56:36.934Z,39.42
2023-02-16T07:59:05.868Z,35.60
2023-02-16T08:01:35.406Z,32.10
2023-02-16T08:04:04.174Z,25.17
2023-02-16T08:06:32.968Z,23.98
2023-02-16T08:09:02.175Z,23.63
2023-02-16T08:11:32.609Z,30.73
2023-02-16T08:14:01.671Z,26.77
2023-02-16T08:16:31.192Z,24.65
2023-02-16T08:19:02.087Z,30.00
2023-02-16T08:21:33.012Z,27.67
2023-02-16T08:24:03.811Z,23.85
2023-02-16T08:26:38.019Z,24.40
2023-02-16T08:29:10.065Z,24.17
2023-02-16T08:31:39.292Z,22.05
2023-02-16T08:34:08.865Z,17.88
2023-02-16T08:36:40.143Z,26.33
2023-02-16T08:39:12.902Z,23.10
2023-02-16T08:41:44.206Z,19.90
2023-02-16T08:44:13.705Z,24.25
2023-02-16T08:46:47.661Z,24.88
2023-02-16T08:49:18.776Z,19.50
2023-02-16T08:51:49.359Z,26.45
2023-02-16T08:54:20.410Z,26.98
2023-02-16T08:56:50.872Z,26.65
2023-02-16T08:59:21.598Z,26.45
2023-02-16T09:01:50.906Z,36.03
2023-02-16T09:04:20.348Z,23.25
2023-02-16T09:06:50.338Z,23.75
2023-02-16T09:09:19.603Z,20.25
2023-02-16T09:11:50.516Z,38.63
2023-02-16T09:14:21.590Z,25.75
2023-02-16T09:16:51.064Z,63.72
2023-02-16T09:19:21.847Z,20.98
2023-02-16T09:21:52.167Z,16.30
2023-02-16T09:24:21.996Z,17.27
2023-02-16T09:27:45.794Z,14.15
2023-02-16T09:30:39.345Z,15.68
2023-02-16T09:33:08.465Z,16.27
2023-02-16T09:35:40.020Z,16.52
2023-02-16T09:38:08.885Z,16.20
2023-02-16T09:40:38.612Z,14.43
2023-02-16T09:43:20.680Z,11.98
2023-02-16T09:45:54.982Z,17.45
2023-02-16T09:48:30.555Z,15.63
2023-02-16T09:51:02.067Z,12.65
2023-02-16T09:53:37.238Z,12.07
2023-02-16T09:58:43.633Z,14.57
2023-02-16T10:01:23.270Z,12.93
2023-02-16T10:04:01.353Z,9.23
2023-02-16T10:06:44.177Z,9.82
2023-02-16T10:09:16.484Z,10.98
2023-02-16T10:11:50.551Z,11.90
2023-02-16T10:14:30.215Z,11.45
2023-02-16T10:17:07.769Z,12.05
2023-02-16T10:19:40.601Z,6.88
2023-02-16T10:22:17.334Z,8.77
2023-02-16T10:24:53.915Z,7.93
2023-02-16T10:27:23.309Z,8.95
2023-02-16T10:29:52.302Z,10.20
2023-02-16T10:32:29.327Z,8.70
2023-02-16T10:35:10.972Z,9.70
2023-02-16T10:37:57.410Z,13.90
2023-02-16T10:40:35.686Z,8.45
2023-02-16T10:43:14.144Z,10.75
2023-02-16T10:45:52.374Z,9.57
2023-02-16T10:48:23.972Z,7.30
2023-02-16T10:50:59.055Z,11.88
2023-02-16T10:53:37.500Z,15.95
2023-02-16T10:56:33.111Z,8.57
2023-02-16T10:59:07.292Z,7.00
2023-02-16T11:01:39.634Z,8.95
2023-02-16T11:04:11.064Z,41.92
2023-02-16T11:06:39.921Z,9.55
2023-02-16T11:09:08.788Z,10.88
2023-02-16T11:11:39.766Z,9.10
2023-02-16T11:14:19.785Z,10.30
2023-02-16T11:16:49.102Z,9.02
2023-02-16T11:19:23.289Z,8.10
2023-02-16T11:21:55.806Z,9.95
2023-02-16T11:24:27.039Z,8.75
2023-02-16T11:27:04.607Z,7.80
2023-02-16T11:29:33.946Z,8.63
2023-02-16T11:32:08.732Z,7.22
2023-02-16T11:34:42.935Z,8.20
2023-02-16T11:37:17.860Z,8.55
2023-02-16T11:39:52.668Z,9.98
2023-02-16T11:42:29.395Z,8.95
2023-02-16T11:45:00.390Z,8.57
2023-02-16T11:47:32.663Z,37.65
2023-02-16T11:50:21.853Z,12.23
2023-02-16T11:52:52.348Z,8.70
2023-02-16T11:55:26.996Z,9.00
2023-02-16T11:57:57.115Z,7.88
2023-02-16T12:00:27.684Z,12.77
2023-02-16T12:03:17.058Z,13.35
2023-02-16T12:06:05.278Z,10.07
2023-02-16T12:08:48.477Z,9.25
2023-02-16T12:11:29.338Z,12.00
2023-02-16T12:14:22.539Z,8.75
2023-02-16T12:16:59.615Z,9.05
2023-02-16T12:19:40.810Z,9.52
2023-02-16T12:22:27.458Z,11.32
2023-02-16T12:25:06.050Z,10.95
2023-02-16T12:27:41.528Z,11.95
2023-02-16T12:30:26.917Z,14.65
2023-02-16T12:33:09.124Z,9.82
2023-02-16T12:35:57.686Z,8.75
2023-02-16T12:38:45.280Z,9.10
2023-02-16T12:41:27.418Z,11.65
2023-02-16T12:44:02.057Z,15.30
2023-02-16T12:46:39.580Z,10.57
2023-02-16T12:49:17.697Z,10.30
2023-02-16T12:51:51.899Z,9.05
2023-02-16T12:54:27.082Z,8.52
2023-02-16T12:59:36.776Z,8.85
2023-02-16T13:02:13.261Z,7.57
2023-02-16T13:04:48.168Z,8.60
2023-02-16T13:07:26.355Z,9.77
2023-02-16T13:10:03.252Z,9.10
2023-02-16T13:12:35.819Z,5.97
2023-02-16T13:15:13.238Z,8.20
2023-02-16T13:17:47.313Z,6.10
2023-02-16T13:20:17.869Z,8.55
2023-02-16T13:23:34.332Z,7.65
2023-02-16T13:26:27.369Z,4.68
2023-02-16T13:29:30.664Z,5.57
2023-02-16T13:32:14.915Z,4.70
2023-02-16T13:35:04.293Z,7.05
2023-02-16T13:37:49.225Z,6.38
2023-02-16T13:40:42.807Z,4.82
2023-02-16T13:43:27.720Z,4.97
2023-02-16T13:45:58.155Z,5.82
2023-02-16T13:48:29.847Z,4.25
2023-02-16T13:51:02.362Z,4.90
2023-02-16T13:53:37.772Z,5.07
2023-02-16T13:56:17.778Z,5.63
2023-02-16T13:58:48.169Z,4.45
2023-02-16T14:01:39.148Z,3.50
2023-02-16T14:04:14.651Z,2.85
2023-02-16T14:06:43.884Z,5.75
2023-02-16T14:09:50.802Z,3.53
2023-02-16T14:12:24.201Z,3.30
2023-02-16T14:15:20.526Z,2.33
2023-02-16T14:17:49.386Z,5.03
2023-02-16T14:20:30.844Z,2.15
2023-02-16T14:23:01.175Z,1.15
2023-02-16T14:25:41.320Z,1.77
2023-02-16T14:28:49.335Z,3.33
2023-02-16T14:31:23.764Z,2.22
2023-02-16T14:34:03.771Z,4.35
2023-02-16T14:36:33.338Z,7.85
2023-02-16T14:39:02.551Z,2.35
2023-02-16T14:41:34.324Z,2.40
2023-02-16T14:44:27.938Z,2.78
2023-02-16T14:47:12.474Z,1.77
2023-02-16T14:50:12.672Z,2.95
2023-02-16T14:53:18.113Z,1.98
2023-02-16T14:56:37.889Z,5.47
2023-02-16T14:59:16.246Z,2.22
2023-02-16T15:01:47.088Z,4.80
2023-02-16T15:04:28.326Z,1.83
2023-02-16T15:06:58.423Z,3.38
2023-02-16T15:09:31.248Z,3.80
2023-02-16T15:12:21.746Z,4.00
2023-02-16T15:14:53.531Z,10.20
2023-02-16T15:17:32.915Z,9.85
2023-02-16T15:20:11.393Z,8.20
2023-02-16T15:22:44.648Z,4.18
2023-02-16T15:25:26.979Z,6.28
2023-02-16T15:28:01.911Z,4.40
2023-02-16T15:30:32.674Z,3.72
2023-02-16T15:33:04.122Z,10.40
2023-02-16T15:35:37.967Z,6.35
2023-02-16T15:38:21.087Z,8.05
2023-02-16T15:40:53.998Z,17.50
2023-02-16T15:43:31.969Z,19.38
2023-02-16T15:46:02.208Z,19.25
2023-02-16T15:48:32.622Z,21.75
2023-02-16T15:51:12.873Z,19.35
2023-02-16T15:53:51.514Z,16.55
2023-02-16T15:56:34.843Z,21.10
2023-02-16T15:59:07.449Z,14.25
2023-02-16T16:01:36.804Z,25.63
2023-02-16T16:04:14.965Z,22.05
2023-02-16T16:06:46.748Z,64.47
2023-02-16T16:09:25.501Z,50.20
2023-02-16T16:11:56.729Z,56.42
2023-02-16T16:14:26.645Z,86.38
2023-02-16T16:16:56.171Z,85.32
2023-02-16T16:19:32.222Z,69.88
2023-02-16T16:22:04.422Z,81.63
2023-02-16T16:24:38.899Z,67.72
2023-02-16T16:27:09.955Z,58.30
2023-02-16T16:29:42.093Z,62.25
2023-02-16T16:32:20.705Z,59.40
2023-02-16T16:34:49.934Z,93.15
2023-02-16T16:37:29.980Z,77.38
2023-02-16T16:40:04.322Z,88.07
2023-02-16T16:42:34.755Z,76.03
2023-02-16T16:45:07.691Z,111.93
2023-02-16T16:47:39.974Z,103.95
2023-02-16T16:50:39.436Z,106.30
2023-02-16T16:53:41.863Z,97.97
2023-02-16T16:56:13.311Z,74.00
2023-02-16T16:58:42.551Z,71.15
2023-02-16T17:01:13.549Z,77.32
2023-02-16T17:03:42.554Z,80.45
2023-02-16T17:06:11.907Z,81.68
2023-02-16T17:08:42.589Z,68.25
2023-02-16T17:11:17.203Z,67.03
2023-02-16T17:13:46.166Z,78.60
2023-02-16T17:16:20.353Z,94.45
2023-02-16T17:18:49.177Z,108.03
2023-02-16T17:21:18.623Z,107.65
2023-02-16T17:23:53.026Z,96.28
2023-02-16T17:26:22.801Z,108.70
2023-02-16T17:28:52.142Z,123.80
2023-02-16T17:31:21.034Z,97.30
2023-02-16T17:33:49.887Z,112.78
2023-02-16T17:36:19.989Z,98.28
2023-02-16T17:38:50.583Z,95.97
2023-02-16T17:41:22.757Z,111.00
2023-02-16T17:43:52.220Z,109.18
2023-02-16T17:46:22.733Z,103.88
2023-02-16T17:48:53.900Z,89.20
2023-02-16T17:51:25.157Z,111.97
2023-02-16T17:53:55.905Z,120.82
2023-02-16T17:56:25.941Z,123.00
2023-02-16T17:58:54.814Z,106.15
2023-02-16T18:01:23.825Z,110.32
2023-02-16T18:03:53.816Z,117.47
2023-02-16T18:06:28.152Z,99.75
2023-02-16T18:08:59.360Z,111.07
2023-02-16T18:11:28.232Z,126.13
2023-02-16T18:13:57.077Z,125.95
2023-02-16T18:16:28.012Z,105.47
2023-02-16T18:18:58.146Z,106.90
2023-02-16T18:21:26.987Z,102.78
2023-02-16T18:23:55.807Z,101.60
2023-02-16T18:26:28.496Z,105.20
2023-02-16T18:28:57.400Z,101.65
2023-02-16T18:31:26.296Z,116.03
2023-02-16T18:33:55.238Z,109.13
2023-02-16T18:36:24.107Z,102.88
2023-02-16T18:38:52.909Z,103.80
2023-02-16T18:41:21.758Z,107.75
2023-02-16T18:43:51.961Z,98.95
2023-02-16T18:46:20.836Z,89.80
2023-02-16T18:48:50.019Z,57.67
2023-02-16T18:51:18.903Z,71.97
2023-02-16T18:53:47.760Z,80.13
2023-02-16T18:56:16.808Z,61.47
2023-02-16T18:58:45.577Z,65.28
2023-02-16T19:01:16.857Z,74.13
2023-02-16T19:03:46.143Z,67.35
2023-02-16T19:06:15.038Z,57.33
2023-02-16T19:08:43.985Z,56.03
2023-02-16T19:11:12.762Z,58.10
2023-02-16T19:13:41.835Z,57.17
2023-02-16T19:16:10.759Z,65.13
2023-02-16T19:18:41.736Z,78.25
2023-02-16T19:21:12.546Z,77.25
2023-02-16T19:23:41.934Z,107.55
2023-02-16T19:26:12.673Z,111.18
2023-02-16T19:28:42.096Z,102.78
2023-02-16T19:31:18.139Z,107.88
2023-02-16T19:33:48.536Z,85.55
2023-02-16T19:36:17.932Z,89.00
2023-02-16T19:38:47.933Z,89.95
2023-02-16T19:41:18.592Z,89.05
2023-02-16T19:43:48.052Z,78.57
2023-02-16T19:46:17.267Z,83.15
2023-02-16T19:48:47.159Z,78.78
2023-02-16T19:51:17.881Z,104.40
2023-02-16T19:53:46.839Z,97.40
2023-02-16T19:56:17.620Z,103.18
2023-02-16T19:58:46.657Z,123.63
2023-02-16T20:01:17.976Z,128.82
2023-02-16T20:03:47.250Z,134.02
2023-02-16T20:06:20.077Z,129.60
2023-02-16T20:08:51.751Z,124.10
2023-02-16T20:11:23.114Z,120.50
2023-02-16T20:13:52.970Z,131.93
2023-02-16T20:16:22.532Z,118.97
2023-02-16T20:18:52.121Z,137.68
2023-02-16T20:21:24.624Z,137.85
2023-02-16T20:23:56.256Z,121.53
2023-02-16T20:26:27.892Z,287.92
2023-02-16T20:28:57.464Z,148.07
2023-02-16T20:31:28.947Z,148.60
2023-02-16T20:33:58.407Z,116.85
2023-02-16T20:36:28.732Z,103.82
2023-02-16T20:38:57.521Z,123.20
2023-02-16T20:41:26.585Z,128.27
2023-02-16T20:43:55.454Z,121.85
2023-02-16T20:46:24.979Z,112.57
2023-02-16T20:48:54.048Z,117.78
2023-02-16T20:51:22.964Z,133.77
2023-02-16T20:53:53.172Z,175.52
2023-02-16T20:56:23.461Z,176.38
2023-02-16T20:58:54.205Z,149.48
2023-02-16T21:01:26.468Z,131.25
2023-02-16T21:03:56.806Z,137.13
2023-02-16T21:06:25.797Z,111.85
2023-02-16T21:08:56.466Z,110.53
2023-02-16T21:11:26.214Z,100.72
2023-02-16T21:13:55.082Z,104.28
2023-02-16T21:16:23.947Z,91.25
2023-02-16T21:18:52.861Z,88.57
2023-02-16T21:21:22.343Z,80.40
2023-02-16T21:23:53.670Z,85.40
2023-02-16T21:26:26.540Z,76.03
2023-02-16T21:28:55.484Z,95.85
2023-02-16T21:31:26.821Z,82.47
2023-02-16T21:33:56.008Z,94.18
2023-02-16T21:36:27.387Z,78.70
2023-02-16T21:38:56.573Z,81.07
2023-02-16T21:41:29.311Z,83.25
2023-02-16T21:44:02.091Z,92.72
2023-02-16T21:46:33.289Z,88.50
2023-02-16T21:49:01.264Z,85.13
2023-02-16T21:51:33.760Z,90.50
2023-02-16T21:54:03.189Z,94.15
2023-02-16T21:56:35.588Z,78.90
2023-02-16T21:59:05.509Z,86.70
2023-02-16T22:01:37.082Z,87.57
2023-02-16T22:04:06.636Z,82.57
2023-02-16T22:06:38.698Z,97.78
2023-02-16T22:09:09.982Z,94.35
2023-02-16T22:11:40.316Z,88.20
2023-02-16T22:14:09.604Z,91.05
2023-02-16T22:16:40.023Z,90.85
2023-02-16T22:19:12.234Z,70.68
2023-02-16T22:21:43.197Z,82.38
2023-02-16T22:24:14.510Z,97.90
2023-02-16T22:26:45.230Z,115.45
2023-02-16T22:29:14.387Z,104.00
2023-02-16T22:31:46.344Z,95.68
2023-02-16T22:34:17.122Z,125.30
2023-02-16T22:36:46.128Z,110.43
2023-02-16T22:39:16.704Z,95.40
2023-02-16T22:41:46.930Z,103.18
2023-02-16T22:44:16.050Z,86.88
2023-02-16T22:46:45.000Z,85.90
2023-02-16T22:49:13.806Z,100.38
2023-02-16T22:51:42.896Z,110.00
2023-02-16T22:54:14.374Z,109.78
2023-02-16T22:56:43.500Z,96.38
2023-02-16T22:59:14.062Z,88.88
2023-02-16T23:01:42.995Z,93.18
2023-02-16T23:04:14.722Z,92.15
2023-02-16T23:06:45.080Z,79.63
2023-02-16T23:09:16.664Z,88.78
2023-02-16T23:11:45.696Z,79.22
2023-02-16T23:14:19.395Z,78.68
2023-02-16T23:16:49.894Z,79.93
2023-02-16T23:19:21.013Z,84.13
2023-02-16T23:21:50.839Z,87.75
2023-02-16T23:24:21.517Z,69.85
2023-02-16T23:26:50.810Z,65.47
2023-02-16T23:29:21.203Z,75.60
2023-02-16T23:31:50.497Z,72.50
2023-02-16T23:34:20.401Z,60.35
2023-02-16T23:36:49.497Z,71.18
2023-02-16T23:39:19.766Z,62.58
2023-02-16T23:41:48.568Z,70.68
2023-02-16T23:44:17.587Z,78.85
2023-02-16T23:46:47.819Z,77.30
2023-02-16T23:49:16.696Z,65.88
2023-02-16T23:51:45.503Z,74.43
2023-02-16T23:54:14.278Z,96.13
2023-02-16T23:56:43.083Z,85.40
2023-02-16T23:59:11.884Z,72.07
